Time;durP1;ratioP1;P1;durP2;ratioP2;P2;SDS_P1;SDS_P2;PMS_P1;PMS_P2;Temp;Humidity;BMP_temperature;BMP_pressure;BME280_temperature;BME280_humidity;BME280_pressure;Samples;Min_cycle;Max_cycle;Signal;HPM_P1;HPM_P2
2023/04/20 00:00:16;;;;;;;;;;;;;;;11.45;55.76;94279.44;4190512;28;20469;-51
2023/04/20 00:02:18;;;;;;;;;;;;;;;11.47;56.11;94262.53;4192403;28;20031;-56
2023/04/20 00:04:21;;;;;;;;;;;;;;;11.44;55.99;94268.13;4188791;28;19974;-55
2023/04/20 00:06:24;;;;;;;;;;;;;;;11.44;56.06;94262.88;4189469;28;19925;-53
2023/04/20 00:08:26;;;;;;;;;;;;;;;11.43;56.08;94268.31;4192540;28;19928;-53
2023/04/20 00:10:28;;;;;;;;;;;;;;;11.44;56.15;94262.06;4192939;28;19924;-51
2023/04/20 00:12:29;;;;;;;;;;;;;;;11.53;56.25;94258.41;4192001;28;20023;-55
2023/04/20 00:14:31;;;;;;;;;;;;;;;11.52;56.30;94259.38;4191118;28;19929;-49
2023/04/20 00:16:32;;;;;;;;;;;;;;;11.55;56.14;94263.44;4191192;28;20020;-54
2023/04/20 00:18:34;;;;;;;;;;;;;;;11.50;56.33;94255.31;4190102;28;20032;-55
2023/04/20 00:20:35;;;;;;;;;;;;;;;11.40;56.85;94256.34;4191736;28;20008;-55
2023/04/20 00:22:37;;;;;;;;;;;;;;;11.45;56.75;94254.00;4192978;28;20314;-52
2023/04/20 00:24:39;;;;;;;;;;;;;;;11.44;56.67;94248.94;4191757;28;19929;-53
2023/04/20 00:26:40;;;;;;;;;;;;;;;11.48;56.56;94253.66;4192773;28;20440;-52
2023/04/20 00:28:42;;;;;;;;;;;;;;;11.39;56.98;94252.09;4191178;28;20324;-52
2023/04/20 00:30:43;;;;;;;;;;;;;;;11.15;57.67;94254.88;4192104;28;20391;-51
2023/04/20 00:32:45;;;;;;;;;;;;;;;10.75;59.32;94252.28;4191007;28;19963;-54
2023/04/20 00:34:47;;;;;;;;;;;;;;;10.78;59.41;94246.72;4189186;28;19975;-55
2023/04/20 00:36:48;;;;;;;;;;;;;;;10.94;59.15;94252.88;4192856;28;19929;-54
2023/04/20 00:38:50;;;;;;;;;;;;;;;11.01;58.55;94251.19;4191981;28;19959;-52
2023/04/20 00:40:53;;;;;;;;;;;;;;;11.10;57.81;94254.56;4191222;28;19932;-53
2023/04/20 00:42:54;;;;;;;;;;;;;;;11.11;57.91;94248.34;4185347;28;19994;-54
2023/04/20 00:44:56;;;;;;;;;;;;;;;11.02;58.39;94253.63;4191121;28;19928;-54
2023/04/20 00:46:57;;;;;;;;;;;;;;;10.98;58.55;94244.47;4192338;28;20284;-52
2023/04/20 00:48:59;;;;;;;;;;;;;;;10.84;59.09;94253.06;4186444;28;19960;-56
2023/04/20 00:51:00;;;;;;;;;;;;;;;10.44;60.55;94254.88;4190091;28;20053;-53
2023/04/20 00:53:02;;;;;;;;;;;;;;;9.99;62.57;94251.84;4190479;28;19963;-52
2023/04/20 00:55:04;;;;;;;;;;;;;;;9.77;63.87;94258.59;4187889;28;19928;-51
2023/04/20 00:57:06;;;;;;;;;;;;;;;9.63;64.45;94264.47;4185407;28;20008;-51
2023/04/20 00:59:07;;;;;;;;;;;;;;;9.67;63.93;94257.94;4189990;28;19932;-52
2023/04/20 01:01:09;;;;;;;;;;;;;;;9.35;64.83;94263.97;4172543;28;19925;-53
2023/04/20 01:03:11;;;;;;;;;;;;;;;9.43;65.29;94248.28;4189798;28;19928;-55
2023/04/20 01:05:13;;;;;;;;;;;;;;;9.47;64.82;94254.84;4190836;28;19943;-53
2023/04/20 01:07:14;;;;;;;;;;;;;;;9.28;65.94;94253.34;4190341;28;19936;-53
2023/04/20 01:09:16;;;;;;;;;;;;;;;9.30;65.88;94251.41;4190667;28;19925;-54
2023/04/20 01:11:18;;;;;;;;;;;;;;;9.26;65.72;94249.28;4189141;28;19925;-53
2023/04/20 01:13:19;;;;;;;;;;;;;;;9.23;65.67;94260.88;4191837;28;19951;-54
2023/04/20 01:15:21;;;;;;;;;;;;;;;9.21;66.56;94249.75;4194847;28;19990;-55
2023/04/20 01:17:23;;;;;;;;;;;;;;;9.09;66.75;94258.88;4194356;28;19929;-57
2023/04/20 01:19:25;;;;;;;;;;;;;;;8.95;67.70;94247.28;4193379;28;19982;-54
2023/04/20 01:21:27;;;;;;;;;;;;;;;8.95;67.60;94252.50;4188346;28;20676;-52
2023/04/20 01:23:28;;;;;;;;;;;;;;;9.01;67.80;94255.28;4195022;28;19947;-53
2023/04/20 01:25:30;;;;;;;;;;;;;;;9.01;67.79;94251.81;4191744;28;19964;-55
2023/04/20 01:27:31;;;;;;;;;;;;;;;8.94;67.68;94246.44;4192685;28;19929;-53
2023/04/20 01:29:33;;;;;;;;;;;;;;;9.01;67.71;94246.59;4195035;28;19985;-55
2023/04/20 01:31:35;;;;;;;;;;;;;;;9.18;66.72;94247.44;4193377;28;20024;-52
2023/04/20 01:33:36;;;;;;;;;;;;;;;9.41;66.46;94243.22;4190935;28;20024;-50
2023/04/20 01:35:41;;;;;;;;;;;;;;;9.30;67.05;94243.56;4195439;28;20015;-53
2023/04/20 01:37:42;;;;;;;;;;;;;;;9.27;67.21;94240.44;4194821;28;19935;-52
2023/04/20 01:39:44;;;;;;;;;;;;;;;9.39;66.53;94239.16;4195293;28;20351;-53
2023/04/20 01:41:46;;;;;;;;;;;;;;;9.48;66.30;94234.72;4192326;28;20359;-54
2023/04/20 01:43:47;;;;;;;;;;;;;;;9.63;65.45;94235.69;4193424;28;19971;-52
2023/04/20 01:45:49;;;;;;;;;;;;;;;9.82;65.21;94226.69;4194268;28;20015;-53
2023/04/20 01:47:51;;;;;;;;;;;;;;;9.95;64.13;94223.56;4191980;28;19929;-54
2023/04/20 01:49:53;;;;;;;;;;;;;;;10.00;64.11;94218.63;4192050;28;19924;-49
2023/04/20 01:51:54;;;;;;;;;;;;;;;10.09;63.98;94219.44;4194189;28;19924;-48
2023/04/20 01:53:56;;;;;;;;;;;;;;;10.19;63.38;94220.88;4193541;28;20035;-54
2023/04/20 01:55:57;;;;;;;;;;;;;;;10.25;63.27;94220.22;4194733;28;19932;-51
2023/04/20 01:57:59;;;;;;;;;;;;;;;10.23;62.92;94221.38;4193206;28;20369;-56
2023/04/20 02:00:00;;;;;;;;;;;;;;;10.06;63.19;94223.22;4191326;28;20370;-50
2023/04/20 02:02:02;;;;;;;;;;;;;;;9.97;64.05;94225.03;4193713;28;19924;-56
2023/04/20 02:04:04;;;;;;;;;;;;;;;9.65;64.72;94231.13;4191680;28;19996;-54
2023/04/20 02:06:05;;;;;;;;;;;;;;;9.62;65.42;94226.25;4194453;28;19932;-53
2023/04/20 02:08:07;;;;;;;;;;;;;;;9.69;65.23;94221.97;4194101;28;20410;-54
2023/04/20 02:10:09;;;;;;;;;;;;;;;9.64;65.02;94221.66;4194667;28;19989;-56
2023/04/20 02:12:10;;;;;;;;;;;;;;;9.68;64.99;94222.13;4194269;28;20540;-54
2023/04/20 02:14:12;;;;;;;;;;;;;;;9.49;65.56;94224.13;4193082;28;19951;-53
2023/04/20 02:16:13;;;;;;;;;;;;;;;9.38;66.15;94222.66;4193391;28;19924;-51
2023/04/20 02:18:15;;;;;;;;;;;;;;;9.47;66.33;94215.63;4193367;28;20272;-54
2023/04/20 02:20:18;;;;;;;;;;;;;;;9.45;66.53;94227.22;4192789;28;19978;-53
2023/04/20 02:22:19;;;;;;;;;;;;;;;9.42;66.32;94221.34;4192756;28;19955;-54
2023/04/20 02:24:21;;;;;;;;;;;;;;;9.39;65.86;94229.50;4185193;28;20019;-54
2023/04/20 02:26:22;;;;;;;;;;;;;;;9.20;67.01;94222.78;4193247;28;20311;-51
2023/04/20 02:28:24;;;;;;;;;;;;;;;9.17;66.37;94232.75;4190603;28;19925;-54
2023/04/20 02:30:25;;;;;;;;;;;;;;;9.22;67.09;94228.66;4190399;28;19932;-54
2023/04/20 02:32:30;;;;;;;;;;;;;;;9.30;66.65;94222.63;4193765;28;19925;-53
2023/04/20 02:34:32;;;;;;;;;;;;;;;9.41;66.10;94224.91;4191517;28;19936;-54
2023/04/20 02:36:34;;;;;;;;;;;;;;;9.51;65.98;94222.16;4194001;28;19941;-56
2023/04/20 02:38:36;;;;;;;;;;;;;;;9.35;66.65;94227.38;4192685;28;19955;-55
2023/04/20 02:40:38;;;;;;;;;;;;;;;9.19;67.20;94222.97;4193622;28;19978;-54
2023/04/20 02:42:40;;;;;;;;;;;;;;;9.04;66.59;94228.00;4192852;28;19924;-55
2023/04/20 02:44:41;;;;;;;;;;;;;;;9.11;66.80;94225.56;4193530;28;19975;-57
2023/04/20 02:46:43;;;;;;;;;;;;;;;9.10;67.72;94229.13;4193696;28;20328;-55
2023/04/20 02:48:44;;;;;;;;;;;;;;;9.09;67.23;94230.13;4192161;28;19940;-53
2023/04/20 02:50:46;;;;;;;;;;;;;;;9.08;67.46;94231.09;4191273;28;19936;-56
2023/04/20 02:52:47;;;;;;;;;;;;;;;8.99;67.66;94225.88;4193785;28;19959;-54
2023/04/20 02:54:49;;;;;;;;;;;;;;;9.02;67.80;94228.16;4193239;28;19974;-51
2023/04/20 02:56:50;;;;;;;;;;;;;;;9.16;67.37;94228.50;4192705;28;19928;-52
2023/04/20 02:58:52;;;;;;;;;;;;;;;9.23;67.57;94225.09;4187397;28;19929;-53
2023/04/20 03:00:58;;;;;;;;;;;;;;;9.39;65.85;94228.69;4189738;28;19929;-55
2023/04/20 03:02:59;;;;;;;;;;;;;;;9.56;65.77;94226.88;4192085;28;20372;-53
2023/04/20 03:05:02;;;;;;;;;;;;;;;9.70;64.74;94226.22;4191088;28;19925;-51
2023/04/20 03:07:04;;;;;;;;;;;;;;;9.79;64.88;94221.81;4189827;28;19935;-52
2023/04/20 03:09:06;;;;;;;;;;;;;;;9.91;64.08;94219.66;4192614;28;20027;-51
2023/04/20 03:11:08;;;;;;;;;;;;;;;9.86;64.16;94221.97;4192126;28;19936;-54
2023/04/20 03:13:09;;;;;;;;;;;;;;;9.94;64.15;94216.72;4193281;28;20429;-50
2023/04/20 03:15:11;;;;;;;;;;;;;;;10.03;63.49;94220.94;4191770;28;20440;-55
2023/04/20 03:17:12;;;;;;;;;;;;;;;10.13;62.98;94215.50;4192264;28;19939;-52
2023/04/20 03:19:14;;;;;;;;;;;;;;;10.19;62.80;94218.25;4191581;28;19925;-55
2023/04/20 03:21:16;;;;;;;;;;;;;;;10.13;62.73;94218.13;4192592;28;19925;-52
2023/04/20 03:23:17;;;;;;;;;;;;;;;10.22;62.60;94215.31;4191689;28;19925;-53
2023/04/20 03:25:19;;;;;;;;;;;;;;;10.27;61.95;94214.00;4192365;28;19924;-52
2023/04/20 03:27:21;;;;;;;;;;;;;;;10.29;62.12;94225.97;4193356;28;20595;-54
2023/04/20 03:29:22;;;;;;;;;;;;;;;10.35;61.73;94221.88;4192349;28;19936;-53
2023/04/20 03:31:24;;;;;;;;;;;;;;;10.17;62.19;94229.88;4191003;28;19947;-53
2023/04/20 03:33:26;;;;;;;;;;;;;;;9.98;63.17;94224.06;4191048;28;20379;-53
2023/04/20 03:35:28;;;;;;;;;;;;;;;9.98;63.19;94223.22;4192027;28;19928;-55
2023/04/20 03:37:30;;;;;;;;;;;;;;;10.02;63.55;94227.16;4192478;28;19929;-55
2023/04/20 03:39:31;;;;;;;;;;;;;;;10.12;62.99;94225.16;4193599;28;19924;-55
2023/04/20 03:41:33;;;;;;;;;;;;;;;10.19;62.58;94228.72;4192144;28;19929;-51
2023/04/20 03:43:34;;;;;;;;;;;;;;;10.22;63.06;94225.78;4191824;28;19928;-58
2023/04/20 03:45:36;;;;;;;;;;;;;;;10.32;62.15;94230.03;4190868;28;19924;-51
2023/04/20 03:47:37;;;;;;;;;;;;;;;10.27;62.53;94227.91;4192552;28;20258;-51
2023/04/20 03:49:39;;;;;;;;;;;;;;;10.30;62.54;94226.78;4191151;28;19931;-52
2023/04/20 03:51:40;;;;;;;;;;;;;;;10.31;62.46;94226.63;4191960;28;19931;-54
2023/04/20 03:53:42;;;;;;;;;;;;;;;10.42;62.29;94223.63;4192477;28;19929;-52
2023/04/20 03:55:43;;;;;;;;;;;;;;;10.50;62.18;94220.16;4192226;28;19985;-54
2023/04/20 03:57:45;;;;;;;;;;;;;;;10.51;61.59;94221.78;4189819;28;19982;-55
2023/04/20 03:59:46;;;;;;;;;;;;;;;10.55;61.28;94225.69;4187604;28;19947;-52
2023/04/20 04:01:48;;;;;;;;;;;;;;;10.62;61.23;94225.84;4192058;28;20300;-53
2023/04/20 04:03:49;;;;;;;;;;;;;;;10.60;60.85;94228.66;4189703;28;19924;-57
2023/04/20 04:05:51;;;;;;;;;;;;;;;10.65;61.18;94228.94;4191743;28;19967;-54
2023/04/20 04:07:53;;;;;;;;;;;;;;;10.68;60.76;94227.78;4188824;28;19968;-58
2023/04/20 04:09:54;;;;;;;;;;;;;;;10.70;60.45;94232.84;4191941;28;19942;-55
2023/04/20 04:11:56;;;;;;;;;;;;;;;10.66;60.48;94230.56;4190880;28;19936;-53
2023/04/20 04:13:58;;;;;;;;;;;;;;;10.71;60.00;94234.47;4191743;28;19994;-54
2023/04/20 04:15:59;;;;;;;;;;;;;;;10.66;60.14;94242.84;4192481;28;19931;-55
2023/04/20 04:18:01;;;;;;;;;;;;;;;10.70;60.05;94240.72;4193021;28;19989;-55
2023/04/20 04:20:03;;;;;;;;;;;;;;;10.74;59.76;94239.38;4190814;28;19928;-55
2023/04/20 04:22:05;;;;;;;;;;;;;;;10.77;59.56;94239.03;4191901;28;19990;-54
2023/04/20 04:24:07;;;;;;;;;;;;;;;10.79;59.61;94239.66;4191924;28;19936;-52
2023/04/20 04:26:10;;;;;;;;;;;;;;;10.80;59.46;94234.28;4191636;28;20112;-54
2023/04/20 04:28:13;;;;;;;;;;;;;;;10.81;59.53;94232.47;4192060;28;20557;-54
2023/04/20 04:30:15;;;;;;;;;;;;;;;10.83;59.46;94230.47;4190005;28;19925;-54
2023/04/20 04:32:16;;;;;;;;;;;;;;;10.88;59.39;94240.44;4191994;28;20360;-56
2023/04/20 04:34:19;;;;;;;;;;;;;;;10.97;59.41;94232.38;4187099;28;19933;-54
2023/04/20 04:36:20;;;;;;;;;;;;;;;10.98;59.22;94236.63;4192125;28;19924;-53
2023/04/20 04:38:22;;;;;;;;;;;;;;;11.00;59.08;94234.63;4191622;28;20721;-56
2023/04/20 04:40:24;;;;;;;;;;;;;;;11.00;59.08;94244.31;4191788;28;19974;-56
2023/04/20 04:42:26;;;;;;;;;;;;;;;10.93;59.02;94249.44;4192063;28;19979;-52
2023/04/20 04:44:28;;;;;;;;;;;;;;;10.84;59.53;94245.19;4191352;28;19964;-53
2023/04/20 04:46:31;;;;;;;;;;;;;;;10.85;59.46;94249.47;4191424;28;20462;-54
2023/04/20 04:48:34;;;;;;;;;;;;;;;10.85;59.58;94252.09;4190103;28;19959;-55
2023/04/20 04:50:36;;;;;;;;;;;;;;;10.78;59.75;94251.97;4195313;28;19924;-56
2023/04/20 04:52:37;;;;;;;;;;;;;;;10.78;60.07;94253.78;4196076;28;19925;-53
2023/04/20 04:54:39;;;;;;;;;;;;;;;10.71;60.30;94265.91;4187693;28;19958;-56
2023/04/20 04:56:41;;;;;;;;;;;;;;;10.78;60.21;94256.41;4185955;28;20075;-54
2023/04/20 04:58:43;;;;;;;;;;;;;;;10.81;59.92;94262.09;4191260;28;19932;-55
2023/04/20 05:00:45;;;;;;;;;;;;;;;10.85;59.79;94262.56;4193939;28;19958;-56
2023/04/20 05:02:46;;;;;;;;;;;;;;;10.93;59.50;94261.72;4191182;28;19924;-55
2023/04/20 05:04:48;;;;;;;;;;;;;;;10.95;59.55;94265.81;4193629;28;19925;-57
2023/04/20 05:06:49;;;;;;;;;;;;;;;10.86;59.70;94259.78;4194236;28;19960;-51
2023/04/20 05:08:51;;;;;;;;;;;;;;;10.76;59.95;94263.59;4194704;28;19990;-50
2023/04/20 05:10:53;;;;;;;;;;;;;;;10.78;60.25;94272.13;4194823;28;19928;-52
2023/04/20 05:12:54;;;;;;;;;;;;;;;10.79;59.85;94265.88;4194623;28;19925;-51
2023/04/20 05:14:56;;;;;;;;;;;;;;;10.80;59.92;94257.84;4193340;28;19925;-55
2023/04/20 05:16:57;;;;;;;;;;;;;;;10.73;59.92;94271.78;4193678;28;19924;-54
2023/04/20 05:18:59;;;;;;;;;;;;;;;10.78;59.98;94272.13;4192910;28;19925;-56
2023/04/20 05:21:00;;;;;;;;;;;;;;;10.75;60.04;94267.19;4195164;28;19924;-54
2023/04/20 05:23:02;;;;;;;;;;;;;;;10.86;60.00;94267.66;4195414;28;20095;-52
2023/04/20 05:25:05;;;;;;;;;;;;;;;10.91;59.68;94277.63;4194704;28;19925;-55
2023/04/20 05:27:07;;;;;;;;;;;;;;;10.92;59.74;94258.28;4193974;28;19925;-52
2023/04/20 05:29:08;;;;;;;;;;;;;;;11.01;59.63;94267.75;4193717;28;19988;-53
2023/04/20 05:31:10;;;;;;;;;;;;;;;11.05;59.39;94274.25;4194660;28;19924;-57
2023/04/20 05:33:11;;;;;;;;;;;;;;;11.04;59.47;94275.25;4193954;28;19924;-55
2023/04/20 05:35:13;;;;;;;;;;;;;;;10.90;59.73;94275.16;4193591;28;19993;-53
2023/04/20 05:37:15;;;;;;;;;;;;;;;10.93;59.73;94273.03;4194418;28;19925;-55
2023/04/20 05:39:17;;;;;;;;;;;;;;;10.77;60.27;94273.91;4194383;28;19936;-54
2023/04/20 05:41:19;;;;;;;;;;;;;;;10.80;60.44;94280.63;4195042;28;19932;-53
2023/04/20 05:43:20;;;;;;;;;;;;;;;10.86;60.67;94285.16;4193996;28;19924;-52
2023/04/20 05:45:22;;;;;;;;;;;;;;;10.81;60.66;94282.25;4194375;28;19925;-53
2023/04/20 05:47:24;;;;;;;;;;;;;;;10.89;60.63;94281.41;4194022;28;19924;-51
2023/04/20 05:49:25;;;;;;;;;;;;;;;10.85;60.71;94286.97;4193100;28;19925;-54
2023/04/20 05:51:30;;;;;;;;;;;;;;;10.80;60.87;94278.00;4194643;28;19932;-52
2023/04/20 05:53:32;;;;;;;;;;;;;;;10.84;61.11;94284.50;4192446;28;19947;-54
2023/04/20 05:55:34;;;;;;;;;;;;;;;10.84;61.32;94287.97;4193868;28;19990;-52
2023/04/20 05:57:41;;;;;;;;;;;;;;;10.81;61.17;94282.25;4192479;28;19925;-56
2023/04/20 05:59:43;;;;;;;;;;;;;;;10.88;61.58;94287.63;4191258;28;21313;-53
2023/04/20 06:01:44;;;;;;;;;;;;;;;10.92;61.52;94276.63;4191877;28;19932;-54
2023/04/20 06:03:47;;;;;;;;;;;;;;;11.02;61.47;94282.47;4192206;28;20277;-52
2023/04/20 06:05:50;;;;;;;;;;;;;;;11.06;61.51;94275.91;4194067;28;19932;-52
2023/04/20 06:07:51;;;;;;;;;;;;;;;11.11;61.41;94277.19;4193585;28;19958;-52
2023/04/20 06:09:53;;;;;;;;;;;;;;;11.12;61.83;94274.41;4193136;28;19928;-51
2023/04/20 06:11:55;;;;;;;;;;;;;;;11.07;62.05;94280.13;4193621;28;19924;-54
2023/04/20 06:13:56;;;;;;;;;;;;;;;11.11;62.42;94271.94;4194381;28;19990;-56
2023/04/20 06:15:58;;;;;;;;;;;;;;;11.10;62.62;94278.16;4194413;28;19924;-55
2023/04/20 06:18:00;;;;;;;;;;;;;;;11.10;62.39;94280.78;4193633;28;20380;-56
2023/04/20 06:20:02;;;;;;;;;;;;;;;11.08;62.52;94278.34;4190423;28;19951;-54
2023/04/20 06:22:05;;;;;;;;;;;;;;;11.10;62.85;94286.03;4194468;28;19925;-55
2023/04/20 06:24:06;;;;;;;;;;;;;;;11.02;62.82;94285.09;4193944;28;20019;-52
2023/04/20 06:26:09;;;;;;;;;;;;;;;11.04;62.37;94277.88;4193519;28;19925;-56
2023/04/20 06:28:10;;;;;;;;;;;;;;;11.05;62.50;94284.72;4193839;28;19993;-54
2023/04/20 06:30:12;;;;;;;;;;;;;;;11.09;62.10;94284.41;4192391;28;19940;-50
2023/04/20 06:32:14;;;;;;;;;;;;;;;11.13;62.00;94283.06;4192406;28;19932;-55
2023/04/20 06:34:15;;;;;;;;;;;;;;;11.21;61.86;94290.91;4191376;28;20040;-55
2023/04/20 06:36:17;;;;;;;;;;;;;;;11.27;61.73;94285.78;4194283;28;19942;-51
2023/04/20 06:38:18;;;;;;;;;;;;;;;11.28;61.52;94291.84;4193377;28;19928;-54
2023/04/20 06:40:20;;;;;;;;;;;;;;;11.22;61.70;94287.28;4193862;28;19932;-55
2023/04/20 06:42:21;;;;;;;;;;;;;;;11.22;61.97;94289.91;4194512;28;19924;-53
2023/04/20 06:44:23;;;;;;;;;;;;;;;11.32;61.79;94287.06;4193253;28;19982;-54
2023/04/20 06:46:24;;;;;;;;;;;;;;;11.35;61.38;94287.50;4194100;28;19970;-53
2023/04/20 06:48:26;;;;;;;;;;;;;;;11.18;61.48;94299.09;4190673;28;20411;-53
2023/04/20 06:50:33;;;;;;;;;;;;;;;11.19;61.71;94301.56;4193176;28;20016;-55
2023/04/20 06:52:38;;;;;;;;;;;;;;;11.20;62.20;94307.59;4192937;28;19929;-56
2023/04/20 06:54:39;;;;;;;;;;;;;;;11.00;63.10;94310.66;4192904;28;19925;-55
2023/04/20 06:56:41;;;;;;;;;;;;;;;10.94;64.10;94308.72;4192974;28;19993;-53
2023/04/20 06:58:42;;;;;;;;;;;;;;;10.85;63.61;94309.75;4190939;28;19924;-57
2023/04/20 07:00:44;;;;;;;;;;;;;;;10.74;64.07;94307.50;4193901;28;20257;-56
2023/04/20 07:02:46;;;;;;;;;;;;;;;10.83;64.38;94311.72;4188055;28;20050;-51
2023/04/20 07:04:48;;;;;;;;;;;;;;;10.93;64.14;94312.34;4191013;28;20296;-53
2023/04/20 07:07:07;;;;;;;;;;;;;;;11.01;63.68;94320.16;4192523;28;19924;-53
2023/04/20 07:09:08;;;;;;;;;;;;;;;11.09;63.77;94306.19;4193268;28;19972;-51
2023/04/20 07:11:10;;;;;;;;;;;;;;;11.17;63.72;94313.19;4191595;28;19971;-56
2023/04/20 07:13:11;;;;;;;;;;;;;;;11.27;63.24;94311.16;4193118;28;19929;-54
2023/04/20 07:15:13;;;;;;;;;;;;;;;11.30;63.47;94320.50;4192241;28;19928;-56
2023/04/20 07:17:14;;;;;;;;;;;;;;;11.37;63.22;94317.00;4193515;28;19929;-54
2023/04/20 07:19:16;;;;;;;;;;;;;;;11.44;63.19;94314.50;4192160;28;20096;-55
2023/04/20 07:21:18;;;;;;;;;;;;;;;11.53;62.99;94304.78;4192183;28;19928;-54
2023/04/20 07:23:20;;;;;;;;;;;;;;;11.61;62.67;94323.09;4193907;28;20324;-53
2023/04/20 07:25:22;;;;;;;;;;;;;;;11.60;62.47;94317.03;4191850;28;19940;-54
2023/04/20 07:27:23;;;;;;;;;;;;;;;11.59;62.05;94311.94;4189118;28;19924;-53
2023/04/20 07:29:25;;;;;;;;;;;;;;;11.58;61.97;94316.38;4193004;28;19925;-55
2023/04/20 07:31:26;;;;;;;;;;;;;;;11.64;62.00;94315.69;4193409;28;20022;-55
2023/04/20 07:33:28;;;;;;;;;;;;;;;11.65;61.33;94322.56;4190314;28;19928;-53
2023/04/20 07:35:30;;;;;;;;;;;;;;;11.77;61.34;94315.13;4192902;28;19959;-57
2023/04/20 07:37:32;;;;;;;;;;;;;;;11.71;61.52;94310.56;4192753;28;19924;-53
2023/04/20 07:39:33;;;;;;;;;;;;;;;11.86;61.06;94303.56;4191118;28;19934;-56
2023/04/20 07:41:35;;;;;;;;;;;;;;;11.83;60.45;94311.78;4191909;28;20078;-52
2023/04/20 07:43:37;;;;;;;;;;;;;;;12.04;59.74;94307.69;4192373;28;19970;-51
2023/04/20 07:45:40;;;;;;;;;;;;;;;12.15;59.30;94309.09;4193073;28;20346;-55
2023/04/20 07:47:45;;;;;;;;;;;;;;;12.35;58.80;94307.59;4191711;28;19925;-56
2023/04/20 07:49:47;;;;;;;;;;;;;;;12.59;58.72;94303.88;4191133;28;19924;-56
2023/04/20 07:51:49;;;;;;;;;;;;;;;12.74;58.16;94305.72;4193062;28;19924;-56
2023/04/20 07:53:51;;;;;;;;;;;;;;;12.80;57.59;94312.84;4191915;28;20348;-52
2023/04/20 07:55:52;;;;;;;;;;;;;;;12.79;57.77;94306.78;4193224;28;19950;-54
2023/04/20 07:57:54;;;;;;;;;;;;;;;12.85;57.45;94308.69;4190840;28;20027;-53
2023/04/20 07:59:56;;;;;;;;;;;;;;;12.88;57.50;94318.84;4189460;28;19943;-55
2023/04/20 08:01:59;;;;;;;;;;;;;;;12.79;56.90;94303.34;4192003;28;20007;-55
2023/04/20 08:04:01;;;;;;;;;;;;;;;12.74;56.73;94324.09;4187349;28;19974;-55
2023/04/20 08:06:03;;;;;;;;;;;;;;;12.66;57.33;94310.03;4190093;28;20089;-59
2023/04/20 08:08:04;;;;;;;;;;;;;;;12.79;57.10;94303.34;4189786;28;20045;-56
2023/04/20 08:10:06;;;;;;;;;;;;;;;12.90;56.95;94313.38;4192757;28;20368;-57
2023/04/20 08:12:08;;;;;;;;;;;;;;;12.88;56.69;94310.13;4193635;28;20651;-56
2023/04/20 08:14:09;;;;;;;;;;;;;;;12.90;57.40;94301.06;4191427;28;19924;-55
2023/04/20 08:16:11;;;;;;;;;;;;;;;12.91;56.80;94307.16;4190720;28;19971;-53
2023/04/20 08:18:12;;;;;;;;;;;;;;;12.85;57.32;94311.31;4191862;28;19925;-56
2023/04/20 08:20:14;;;;;;;;;;;;;;;12.20;58.84;94317.25;4191081;28;19932;-54
2023/04/20 08:22:15;;;;;;;;;;;;;;;12.11;58.59;94315.69;4192945;28;19928;-55
2023/04/20 08:24:17;;;;;;;;;;;;;;;11.78;59.27;94313.28;4190536;28;19924;-55
2023/04/20 08:26:19;;;;;;;;;;;;;;;11.96;59.29;94311.22;4190950;28;19929;-58
2023/04/20 08:28:21;;;;;;;;;;;;;;;12.14;58.62;94308.28;4191452;28;19944;-55
2023/04/20 08:30:34;;;;;;;;;;;;;;;12.13;58.65;94322.41;4184569;28;20000;-56
2023/04/20 08:32:36;;;;;;;;;;;;;;;11.53;60.49;94318.72;4190999;28;20032;-55
2023/04/20 08:34:37;;;;;;;;;;;;;;;11.65;60.32;94311.25;4190264;28;20271;-55
2023/04/20 08:36:39;;;;;;;;;;;;;;;11.79;60.29;94318.38;4191752;28;20012;-55
2023/04/20 08:38:41;;;;;;;;;;;;;;;11.99;59.79;94317.94;4192628;28;19928;-56
2023/04/20 08:40:42;;;;;;;;;;;;;;;12.10;59.48;94317.50;4192953;28;19925;-53
2023/04/20 08:42:44;;;;;;;;;;;;;;;12.20;59.23;94315.44;4183911;28;19929;-55
2023/04/20 08:44:46;;;;;;;;;;;;;;;12.07;59.38;94320.50;4188374;28;19954;-54
2023/04/20 08:46:48;;;;;;;;;;;;;;;12.06;58.81;94324.91;4192490;28;20381;-52
2023/04/20 08:48:49;;;;;;;;;;;;;;;12.14;58.58;94316.16;4188860;28;20381;-54
2023/04/20 08:50:51;;;;;;;;;;;;;;;12.12;58.76;94317.31;4191452;28;20015;-53
2023/04/20 08:52:52;;;;;;;;;;;;;;;12.24;58.53;94321.97;4192634;28;20298;-56
2023/04/20 08:54:54;;;;;;;;;;;;;;;12.13;58.34;94317.16;4191391;28;19974;-54
2023/04/20 08:56:58;;;;;;;;;;;;;;;12.11;59.00;94324.41;4191651;28;19940;-57
2023/04/20 08:59:02;;;;;;;;;;;;;;;12.00;59.36;94324.78;4189436;28;20373;-54
2023/04/20 09:01:04;;;;;;;;;;;;;;;11.97;59.32;94319.91;4191824;28;20335;-54
2023/04/20 09:03:05;;;;;;;;;;;;;;;11.91;58.47;94326.66;4192114;28;19925;-56
2023/04/20 09:05:07;;;;;;;;;;;;;;;11.99;58.73;94318.72;4184167;28;19929;-53
2023/04/20 09:07:16;;;;;;;;;;;;;;;12.08;59.03;94322.09;4190260;28;20011;-55
2023/04/20 09:09:18;;;;;;;;;;;;;;;11.99;58.83;94329.25;4191718;28;19924;-57
2023/04/20 09:11:21;;;;;;;;;;;;;;;12.17;58.67;94320.22;4192209;28;19928;-56
2023/04/20 09:13:23;;;;;;;;;;;;;;;12.10;58.72;94328.00;4190771;28;19924;-53
2023/04/20 09:15:24;;;;;;;;;;;;;;;12.12;58.28;94330.47;4190910;28;19979;-58
2023/04/20 09:17:32;;;;;;;;;;;;;;;12.24;58.46;94329.84;4188744;28;20392;-55
2023/04/20 09:19:34;;;;;;;;;;;;;;;12.28;58.72;94328.50;4190049;28;19996;-54
2023/04/20 09:21:36;;;;;;;;;;;;;;;12.40;58.42;94323.63;4193111;28;20471;-54
2023/04/20 09:23:37;;;;;;;;;;;;;;;12.48;57.86;94323.53;4191709;28;20011;-57
2023/04/20 09:25:42;;;;;;;;;;;;;;;12.65;57.43;94318.13;4191690;28;20057;-54
2023/04/20 09:27:56;;;;;;;;;;;;;;;12.71;56.73;94317.38;4192037;28;19950;-52
2023/04/20 09:29:58;;;;;;;;;;;;;;;12.79;56.75;94313.84;4187050;28;20414;-56
2023/04/20 09:32:00;;;;;;;;;;;;;;;12.89;56.53;94312.56;4190395;28;19940;-58
2023/04/20 09:34:02;;;;;;;;;;;;;;;12.97;56.03;94308.22;4182438;28;19931;-55
2023/04/20 09:36:04;;;;;;;;;;;;;;;12.95;56.29;94312.84;4193478;28;20020;-59
2023/04/20 09:38:06;;;;;;;;;;;;;;;12.96;56.05;94303.97;4195278;28;19949;-55
2023/04/20 09:40:08;;;;;;;;;;;;;;;13.03;55.99;94310.13;4194888;28;20049;-57
2023/04/20 09:42:13;;;;;;;;;;;;;;;13.24;55.67;94312.78;4194051;28;19974;-57
2023/04/20 09:44:15;;;;;;;;;;;;;;;13.51;55.28;94300.78;4194305;28;20039;-56
2023/04/20 09:46:17;;;;;;;;;;;;;;;13.63;54.49;94300.28;4195698;28;19994;-54
2023/04/20 09:48:20;;;;;;;;;;;;;;;13.60;54.76;94296.22;4191926;28;20312;-53
2023/04/20 09:50:22;;;;;;;;;;;;;;;13.76;54.64;94297.78;4195679;28;20012;-56
2023/04/20 09:52:36;;;;;;;;;;;;;;;13.67;53.91;94298.91;4186195;28;19998;-56
2023/04/20 09:54:37;;;;;;;;;;;;;;;13.63;53.93;94306.38;4189939;28;19925;-56
2023/04/20 09:56:39;;;;;;;;;;;;;;;13.66;53.86;94289.41;4193183;28;19947;-59
2023/04/20 09:58:40;;;;;;;;;;;;;;;13.67;54.26;94293.66;4190449;28;19933;-58
2023/04/20 10:00:42;;;;;;;;;;;;;;;13.65;53.86;94291.19;4196170;28;19988;-58
2023/04/20 10:02:45;;;;;;;;;;;;;;;13.57;54.12;94286.06;4194929;28;19925;-54
2023/04/20 10:04:51;;;;;;;;;;;;;;;13.67;54.24;94285.75;4189803;28;20074;-58
2023/04/20 10:06:54;;;;;;;;;;;;;;;13.69;54.31;94281.94;4190728;28;19932;-52
2023/04/20 10:08:55;;;;;;;;;;;;;;;13.72;54.76;94278.09;4195095;28;20357;-53
2023/04/20 10:10:57;;;;;;;;;;;;;;;13.28;55.24;94281.69;4193528;28;19962;-57
2023/04/20 10:13:00;;;;;;;;;;;;;;;12.84;56.00;94277.31;4192734;28;19947;-55
2023/04/20 10:15:02;;;;;;;;;;;;;;;13.06;56.10;94279.00;4192574;28;19931;-55
2023/04/20 10:17:05;;;;;;;;;;;;;;;13.32;55.46;94282.97;4193572;28;19928;-52
2023/04/20 10:19:07;;;;;;;;;;;;;;;13.55;55.33;94282.81;4192274;28;19932;-50
2023/04/20 10:21:09;;;;;;;;;;;;;;;13.78;54.01;94282.63;4194239;28;19924;-51
2023/04/20 10:23:13;;;;;;;;;;;;;;;14.04;54.00;94273.31;4193815;28;19974;-54
2023/04/20 10:25:19;;;;;;;;;;;;;;;14.17;52.86;94278.69;4194006;28;20346;-56
2023/04/20 10:27:21;;;;;;;;;;;;;;;14.20;53.18;94265.13;4193929;28;20246;-52
2023/04/20 10:29:23;;;;;;;;;;;;;;;14.25;52.74;94272.47;4191886;28;19925;-56
2023/04/20 10:31:33;;;;;;;;;;;;;;;14.37;52.34;94268.31;4187433;28;19955;-55
2023/04/20 10:33:35;;;;;;;;;;;;;;;14.18;52.43;94269.78;4190579;28;20490;-51
2023/04/20 10:35:46;;;;;;;;;;;;;;;14.24;52.34;94263.75;4194548;28;20019;-52